64.7°F
Current conditions from King Hill
Updated every 5 minutes
 
  Friday August 29, 2014

Station Historical Data
Daily Summary for February 20, 2012 Units:  Both    English   Metric
« Previous Day
Next Day »
Daily Weekly Monthly Yearly Custom
  High: Low: Average:
Temperature: 29.7 °F /  -1.3 °C 10.9 °F /  -11.7 °C 20 °F /  -6.7 °C
Dew Point: 15.6 °F /  -9.1 °C 6.3 °F /  -14.3 °C 11.9 °F /  -11.2 °C
Humidity: 92% 50% 72%
Wind Speed: 5.0mph /  8km/h - 1.8mph /  2.9km/h
Wind Gust: 12.0mph /  19.3km/h - -
Wind- - SSW
Pressure: 30.30 in /  1026 hPa 30.07 in /  1018.2 hPa -
Precipitation: 0.00 in /  0 mm    
Historical Graphs
 
 
Tabular Data for February 20, 2012
Time Temperature Dew Point Pressure Wind Wind Speed Wind Gust Humidity Daily Rainfall
00:00 20.0 °F /  -6.7 °C 13.0 °F /  -10.6 °C 30.07in /  1018.2hPa Calm   4.0mph /  6.4km/h 74% 0.00in /  0mm
00:05 19.7 °F /  -6.8 °C 12.8 °F /  -10.7 °C 30.08in /  1018.5hPa NW 1.0mph /  1.6km/h 4.0mph /  6.4km/h 74% 0.00in /  0mm
00:10 19.7 °F /  -6.8 °C 13.1 °F /  -10.5 °C 30.08in /  1018.5hPa Calm   4.0mph /  6.4km/h 75% 0.00in /  0mm
00:15 19.4 °F /  -7 °C 12.8 °F /  -10.7 °C 30.08in /  1018.5hPa Calm   3.0mph /  4.8km/h 75% 0.00in /  0mm
00:20 19.4 °F /  -7 °C 12.8 °F /  -10.7 °C 30.08in /  1018.5hPa NW 1.0mph /  1.6km/h 3.0mph /  4.8km/h 75% 0.00in /  0mm
00:25 19.4 °F /  -7 °C 12.8 °F /  -10.7 °C 30.08in /  1018.5hPa Calm   3.0mph /  4.8km/h 75% 0.00in /  0mm
00:30 19.3 °F /  -7.1 °C 12.7 °F /  -10.7 °C 30.08in /  1018.5hPa Calm   2.0mph /  3.2km/h 75% 0.00in /  0mm
00:35 19.1 °F /  -7.2 °C 12.5 °F /  -10.8 °C 30.08in /  1018.5hPa Calm     75% 0.00in /  0mm
00:45 18.7 °F /  -7.4 °C 12.4 °F /  -10.9 °C 30.08in /  1018.5hPa Calm   3.0mph /  4.8km/h 76% 0.00in /  0mm
00:50 18.7 °F /  -7.4 °C 12.4 °F /  -10.9 °C 30.08in /  1018.5hPa NW 1.0mph /  1.6km/h 5.0mph /  8km/h 76% 0.00in /  0mm
00:55 18.7 °F /  -7.4 °C 12.4 °F /  -10.9 °C 30.08in /  1018.5hPa Calm   5.0mph /  8km/h 76% 0.00in /  0mm
01:00 18.7 °F /  -7.4 °C 12.4 °F /  -10.9 °C 30.08in /  1018.5hPa Calm   4.0mph /  6.4km/h 76% 0.00in /  0mm
01:05 18.8 °F /  -7.3 °C 12.8 °F /  -10.7 °C 30.08in /  1018.5hPa Calm   4.0mph /  6.4km/h 77% 0.00in /  0mm
01:10 18.8 °F /  -7.3 °C 12.8 °F /  -10.7 °C 30.08in /  1018.5hPa Calm   4.0mph /  6.4km/h 77% 0.00in /  0mm
01:15 18.8 °F /  -7.3 °C 12.5 °F /  -10.8 °C 30.08in /  1018.5hPa Calm   2.0mph /  3.2km/h 76% 0.00in /  0mm
01:20 18.7 °F /  -7.4 °C 12.4 °F /  -10.9 °C 30.08in /  1018.5hPa Calm   2.0mph /  3.2km/h 76% 0.00in /  0mm
01:25 18.7 °F /  -7.4 °C 12.7 °F /  -10.7 °C 30.08in /  1018.5hPa Calm   2.0mph /  3.2km/h 77% 0.00in /  0mm
01:30 18.8 °F /  -7.3 °C 12.5 °F /  -10.8 °C 30.08in /  1018.5hPa NW 1.0mph /  1.6km/h 4.0mph /  6.4km/h 76% 0.00in /  0mm
01:40 18.6 °F /  -7.4 °C 12.3 °F /  -10.9 °C 30.08in /  1018.5hPa Calm   4.0mph /  6.4km/h 76% 0.00in /  0mm
01:45 18.4 °F /  -7.6 °C 12.1 °F /  -11.1 °C 30.08in /  1018.5hPa Calm   3.0mph /  4.8km/h 76% 0.00in /  0mm
01:50 18.3 °F /  -7.6 °C 12.3 °F /  -10.9 °C 30.08in /  1018.5hPa NW 1.0mph /  1.6km/h 3.0mph /  4.8km/h 77% 0.00in /  0mm
01:55 18.1 °F /  -7.7 °C 12.1 °F /  -11.1 °C 30.08in /  1018.5hPa Calm   3.0mph /  4.8km/h 77% 0.00in /  0mm
02:00 17.9 °F /  -7.8 °C 11.9 °F /  -11.2 °C 30.08in /  1018.5hPa Calm   2.0mph /  3.2km/h 77% 0.00in /  0mm
02:05 17.7 °F /  -7.9 °C 12.0 °F /  -11.1 °C 30.08in /  1018.5hPa Calm   2.0mph /  3.2km/h 78% 0.00in /  0mm
02:10 17.5 °F /  -8.1 °C 11.8 °F /  -11.2 °C 30.08in /  1018.5hPa NW 1.0mph /  1.6km/h 5.0mph /  8km/h 78% 0.00in /  0mm
02:15 17.3 °F /  -8.2 °C 11.6 °F /  -11.3 °C 30.08in /  1018.5hPa Calm   5.0mph /  8km/h 78% 0.00in /  0mm
02:25 17.2 °F /  -8.2 °C 11.5 °F /  -11.4 °C 30.08in /  1018.5hPa Calm   4.0mph /  6.4km/h 78% 0.00in /  0mm
02:35 17.1 °F /  -8.3 °C 11.4 °F /  -11.4 °C 30.08in /  1018.5hPa NW 1.0mph /  1.6km/h 4.0mph /  6.4km/h 78% 0.00in /  0mm
02:45 16.9 °F /  -8.4 °C 11.5 °F /  -11.4 °C 30.08in /  1018.5hPa Calm   3.0mph /  4.8km/h 79% 0.00in /  0mm
02:50 16.9 °F /  -8.4 °C 11.5 °F /  -11.4 °C 30.08in /  1018.5hPa Calm   4.0mph /  6.4km/h 79% 0.00in /  0mm
02:55 16.7 °F /  -8.5 °C 11.3 °F /  -11.5 °C 30.08in /  1018.5hPa Calm   4.0mph /  6.4km/h 79% 0.00in /  0mm
03:00 16.6 °F /  -8.6 °C 11.2 °F /  -11.6 °C 30.08in /  1018.5hPa NW 1.0mph /  1.6km/h 4.0mph /  6.4km/h 79% 0.00in /  0mm
03:05 16.4 °F /  -8.7 °C 11.0 °F /  -11.7 °C 30.08in /  1018.5hPa Calm   4.0mph /  6.4km/h 79% 0.00in /  0mm
03:10 16.5 °F /  -8.6 °C 11.4 °F /  -11.4 °C 30.08in /  1018.5hPa Calm   3.0mph /  4.8km/h 80% 0.00in /  0mm
03:15 16.4 °F /  -8.7 °C 11.0 °F /  -11.7 °C 30.08in /  1018.5hPa NW 1.0mph /  1.6km/h 4.0mph /  6.4km/h 79% 0.00in /  0mm
03:20 16.3 °F /  -8.7 °C 11.2 °F /  -11.6 °C 30.08in /  1018.5hPa NW 1.0mph /  1.6km/h 4.0mph /  6.4km/h 80% 0.00in /  0mm
03:25 16.3 °F /  -8.7 °C 11.2 °F /  -11.6 °C 30.08in /  1018.5hPa NW 1.0mph /  1.6km/h 4.0mph /  6.4km/h 80% 0.00in /  0mm
03:30 16.4 °F /  -8.7 °C 11.3 °F /  -11.5 °C 30.09in /  1018.8hPa North 1.0mph /  1.6km/h 4.0mph /  6.4km/h 80% 0.00in /  0mm
03:35 16.4 °F /  -8.7 °C 11.3 °F /  -11.5 °C 30.09in /  1018.8hPa Calm   3.0mph /  4.8km/h 80% 0.00in /  0mm
03:40 16.3 °F /  -8.7 °C 11.2 °F /  -11.6 °C 30.09in /  1018.8hPa Calm   3.0mph /  4.8km/h 80% 0.00in /  0mm
03:45 16.2 °F /  -8.8 °C 11.1 °F /  -11.6 °C 30.09in /  1018.8hPa NNE 1.0mph /  1.6km/h 4.0mph /  6.4km/h 80% 0.00in /  0mm
03:50 16.2 °F /  -8.8 °C 11.1 °F /  -11.6 °C 30.09in /  1018.8hPa NNE 1.0mph /  1.6km/h 4.0mph /  6.4km/h 80% 0.00in /  0mm
03:55 16.3 °F /  -8.7 °C 11.2 °F /  -11.6 °C 30.09in /  1018.8hPa NW 1.0mph /  1.6km/h 5.0mph /  8km/h 80% 0.00in /  0mm
04:00 16.2 °F /  -8.8 °C 11.1 °F /  -11.6 °C 30.09in /  1018.8hPa Calm   5.0mph /  8km/h 80% 0.00in /  0mm
04:05 16.1 °F /  -8.8 °C 11.0 °F /  -11.7 °C 30.09in /  1018.8hPa Calm   4.0mph /  6.4km/h 80% 0.00in /  0mm
04:10 16.0 °F /  -8.9 °C 11.2 °F /  -11.6 °C 30.09in /  1018.8hPa Calm   4.0mph /  6.4km/h 81% 0.00in /  0mm
04:15 15.9 °F /  -8.9 °C 11.1 °F /  -11.6 °C 30.09in /  1018.8hPa Calm   3.0mph /  4.8km/h 81% 0.00in /  0mm
04:20 15.7 °F /  -9.1 °C 10.9 °F /  -11.7 °C 30.10in /  1019.2hPa Calm   2.0mph /  3.2km/h 81% 0.00in /  0mm
04:25 15.5 °F /  -9.2 °C 10.7 °F /  -11.8 °C 30.10in /  1019.2hPa Calm   2.0mph /  3.2km/h 81% 0.00in /  0mm
04:30 15.2 °F /  -9.3 °C 10.4 °F /  -12 °C 30.10in /  1019.2hPa Calm     81% 0.00in /  0mm
04:35 14.9 °F /  -9.5 °C 10.1 °F /  -12.2 °C 30.10in /  1019.2hPa Calm     81% 0.00in /  0mm
04:40 14.8 °F /  -9.6 °C 10.3 °F /  -12.1 °C 30.10in /  1019.2hPa Calm     82% 0.00in /  0mm
04:45 14.7 °F /  -9.6 °C 10.2 °F /  -12.1 °C 30.11in /  1019.5hPa Calm     82% 0.00in /  0mm
04:50 14.5 °F /  -9.7 °C 10.0 °F /  -12.2 °C 30.11in /  1019.5hPa Calm     82% 0.00in /  0mm
04:55 14.2 °F /  -9.9 °C 9.7 °F /  -12.4 °C 30.11in /  1019.5hPa Calm     82% 0.00in /  0mm
05:00 13.9 °F /  -10.1 °C 9.4 °F /  -12.6 °C 30.11in /  1019.5hPa Calm     82% 0.00in /  0mm
05:05 13.6 °F /  -10.2 °C 9.1 °F /  -12.7 °C 30.11in /  1019.5hPa Calm     82% 0.00in /  0mm
05:10 13.3 °F /  -10.4 °C 8.8 °F /  -12.9 °C 30.12in /  1019.9hPa Calm     82% 0.00in /  0mm
05:15 13.2 °F /  -10.4 °C 8.7 °F /  -12.9 °C 30.12in /  1019.9hPa Calm     82% 0.00in /  0mm
05:20 13.3 °F /  -10.4 °C 9.1 °F /  -12.7 °C 30.12in /  1019.9hPa Calm     83% 0.00in /  0mm
05:25 13.4 °F /  -10.3 °C 9.2 °F /  -12.7 °C 30.12in /  1019.9hPa Calm     83% 0.00in /  0mm
05:30 13.6 °F /  -10.2 °C 9.4 °F /  -12.6 °C 30.12in /  1019.9hPa Calm     83% 0.00in /  0mm
05:35 13.6 °F /  -10.2 °C 9.4 °F /  -12.6 °C 30.12in /  1019.9hPa Calm     83% 0.00in /  0mm
05:40 13.6 °F /  -10.2 °C 9.4 °F /  -12.6 °C 30.12in /  1019.9hPa Calm     83% 0.00in /  0mm
05:45 13.5 °F /  -10.3 °C 9.3 °F /  -12.6 °C 30.13in /  1020.2hPa Calm     83% 0.00in /  0mm
05:50 13.3 °F /  -10.4 °C 9.1 °F /  -12.7 °C 30.13in /  1020.2hPa Calm   3.0mph /  4.8km/h 83% 0.00in /  0mm
05:55 13.0 °F /  -10.6 °C 8.5 °F /  -13.1 °C 30.13in /  1020.2hPa Calm   3.0mph /  4.8km/h 82% 0.00in /  0mm
06:00 12.7 °F /  -10.7 °C 8.2 °F /  -13.2 °C 30.13in /  1020.2hPa Calm   3.0mph /  4.8km/h 82% 0.00in /  0mm
06:05 12.4 °F /  -10.9 °C 8.0 °F /  -13.3 °C 30.13in /  1020.2hPa Calm   2.0mph /  3.2km/h 82% 0.00in /  0mm
06:10 12.1 °F /  -11.1 °C 7.7 °F /  -13.5 °C 30.13in /  1020.2hPa Calm     82% 0.00in /  0mm
06:15 11.8 °F /  -11.2 °C 7.1 °F /  -13.8 °C 30.14in /  1020.5hPa Calm   1.0mph /  1.6km/h 81% 0.00in /  0mm
06:20 11.5 °F /  -11.4 °C 7.1 °F /  -13.8 °C 30.14in /  1020.5hPa Calm   1.0mph /  1.6km/h 82% 0.00in /  0mm
06:25 11.2 °F /  -11.6 °C 6.5 °F /  -14.2 °C 30.14in /  1020.5hPa Calm   1.0mph /  1.6km/h 81% 0.00in /  0mm
06:30 11.0 °F /  -11.7 °C 6.3 °F /  -14.3 °C 30.14in /  1020.5hPa Calm   1.0mph /  1.6km/h 81% 0.00in /  0mm
06:35 10.9 °F /  -11.7 °C 6.5 °F /  -14.2 °C 30.14in /  1020.5hPa Calm   1.0mph /  1.6km/h 82% 0.00in /  0mm
06:45 11.2 °F /  -11.6 °C 6.8 °F /  -14 °C 30.15in /  1020.9hPa Calm   2.0mph /  3.2km/h 82% 0.00in /  0mm
06:50 11.4 °F /  -11.4 °C 7.2 °F /  -13.8 °C 30.15in /  1020.9hPa Calm   2.0mph /  3.2km/h 83% 0.00in /  0mm
07:00 11.7 °F /  -11.3 °C 7.5 °F /  -13.6 °C 30.15in /  1020.9hPa Calm   2.0mph /  3.2km/h 83% 0.00in /  0mm
07:05 12.3 °F /  -10.9 °C 10.4 °F /  -12 °C 30.15in /  1020.9hPa NNE 1.0mph /  1.6km/h 3.0mph /  4.8km/h 92% 0.00in /  0mm
07:10 13.0 °F /  -10.6 °C 8.8 °F /  -12.9 °C 30.16in /  1021.2hPa Calm   5.0mph /  8km/h 83% 0.00in /  0mm
07:15 13.5 °F /  -10.3 °C 9.3 °F /  -12.6 °C 30.16in /  1021.2hPa Calm   5.0mph /  8km/h 83% 0.00in /  0mm
07:20 13.7 °F /  -10.2 °C 9.2 °F /  -12.7 °C 30.16in /  1021.2hPa NNE 2.0mph /  3.2km/h 4.0mph /  6.4km/h 82% 0.00in /  0mm
07:25 13.9 °F /  -10.1 °C 9.2 °F /  -12.7 °C 30.16in /  1021.2hPa NNE 1.0mph /  1.6km/h 4.0mph /  6.4km/h 81% 0.00in /  0mm
07:30 14.0 °F /  -10 °C 9.2 °F /  -12.7 °C 30.17in /  1021.6hPa Calm   4.0mph /  6.4km/h 81% 0.00in /  0mm
07:35 13.9 °F /  -10.1 °C 8.9 °F /  -12.8 °C 30.17in /  1021.6hPa Calm   3.0mph /  4.8km/h 80% 0.00in /  0mm
07:40 13.9 °F /  -10.1 °C 8.9 °F /  -12.8 °C 30.17in /  1021.6hPa Calm   3.0mph /  4.8km/h 80% 0.00in /  0mm
07:45 13.9 °F /  -10.1 °C 8.9 °F /  -12.8 °C 30.17in /  1021.6hPa Calm   3.0mph /  4.8km/h 80% 0.00in /  0mm
07:50 13.9 °F /  -10.1 °C 8.9 °F /  -12.8 °C 30.18in /  1021.9hPa Calm   3.0mph /  4.8km/h 80% 0.00in /  0mm
07:55 14.1 °F /  -9.9 °C 9.1 °F /  -12.7 °C 30.18in /  1021.9hPa NE 1.0mph /  1.6km/h 3.0mph /  4.8km/h 80% 0.00in /  0mm
08:00 14.4 °F /  -9.8 °C 9.1 °F /  -12.7 °C 30.18in /  1021.9hPa NE 1.0mph /  1.6km/h 4.0mph /  6.4km/h 79% 0.00in /  0mm
08:05 14.7 °F /  -9.6 °C 9.4 °F /  -12.6 °C 30.18in /  1021.9hPa NE 1.0mph /  1.6km/h 4.0mph /  6.4km/h 79% 0.00in /  0mm
08:10 15.1 °F /  -9.4 °C 9.8 °F /  -12.3 °C 30.18in /  1021.9hPa Calm   3.0mph /  4.8km/h 79% 0.00in /  0mm
08:15 15.4 °F /  -9.2 °C 10.1 °F /  -12.2 °C 30.19in /  1022.2hPa NNE 2.0mph /  3.2km/h 4.0mph /  6.4km/h 79% 0.00in /  0mm
08:20 15.7 °F /  -9.1 °C 10.1 °F /  -12.2 °C 30.19in /  1022.2hPa North 1.0mph /  1.6km/h 4.0mph /  6.4km/h 78% 0.00in /  0mm
08:25 15.9 °F /  -8.9 °C 10.3 °F /  -12.1 °C 30.19in /  1022.2hPa North 1.0mph /  1.6km/h 4.0mph /  6.4km/h 78% 0.00in /  0mm
08:30 15.9 °F /  -8.9 °C 10.0 °F /  -12.2 °C 30.19in /  1022.2hPa NNE 2.0mph /  3.2km/h 6.0mph /  9.7km/h 77% 0.00in /  0mm
08:35 16.1 °F /  -8.8 °C 10.5 °F /  -11.9 °C 30.19in /  1022.2hPa NNE 3.0mph /  4.8km/h 7.0mph /  11.3km/h 78% 0.00in /  0mm
08:40 16.2 °F /  -8.8 °C 10.5 °F /  -11.9 °C 30.19in /  1022.2hPa NE 2.0mph /  3.2km/h 8.0mph /  12.9km/h 78% 0.00in /  0mm
08:50 16.6 °F /  -8.6 °C 10.9 °F /  -11.7 °C 30.20in /  1022.6hPa NE 1.0mph /  1.6km/h 6.0mph /  9.7km/h 78% 0.00in /  0mm
09:00 17.5 °F /  -8.1 °C 11.5 °F /  -11.4 °C 30.20in /  1022.6hPa NE 1.0mph /  1.6km/h 4.0mph /  6.4km/h 77% 0.00in /  0mm
09:05 17.9 °F /  -7.8 °C 11.6 °F /  -11.3 °C 30.21in /  1022.9hPa North 1.0mph /  1.6km/h 5.0mph /  8km/h 76% 0.00in /  0mm
09:10 18.2 °F /  -7.7 °C 11.6 °F /  -11.3 °C 30.21in /  1022.9hPa Calm   5.0mph /  8km/h 75% 0.00in /  0mm
09:15 18.3 °F /  -7.6 °C 11.4 °F /  -11.4 °C 30.21in /  1022.9hPa North 1.0mph /  1.6km/h 6.0mph /  9.7km/h 74% 0.00in /  0mm
09:20 18.3 °F /  -7.6 °C 11.1 °F /  -11.6 °C 30.21in /  1022.9hPa Calm   6.0mph /  9.7km/h 73% 0.00in /  0mm
09:25 18.6 °F /  -7.4 °C 11.7 °F /  -11.3 °C 30.21in /  1022.9hPa Calm   3.0mph /  4.8km/h 74% 0.00in /  0mm
09:30 18.7 °F /  -7.4 °C 11.5 °F /  -11.4 °C 30.21in /  1022.9hPa Calm   4.0mph /  6.4km/h 73% 0.00in /  0mm
09:35 18.8 °F /  -7.3 °C 11.6 °F /  -11.3 °C 30.21in /  1022.9hPa North 1.0mph /  1.6km/h 4.0mph /  6.4km/h 73% 0.00in /  0mm
09:40 19.0 °F /  -7.2 °C 11.5 °F /  -11.4 °C 30.21in /  1022.9hPa Calm   3.0mph /  4.8km/h 72% 0.00in /  0mm
09:45 19.2 °F /  -7.1 °C 11.3 °F /  -11.5 °C 30.22in /  1023.2hPa NNW 2.0mph /  3.2km/h 4.0mph /  6.4km/h 71% 0.00in /  0mm
09:50 19.2 °F /  -7.1 °C 11.3 °F /  -11.5 °C 30.22in /  1023.2hPa Calm   6.0mph /  9.7km/h 71% 0.00in /  0mm
09:55 19.0 °F /  -7.2 °C 11.1 °F /  -11.6 °C 30.22in /  1023.2hPa Calm   6.0mph /  9.7km/h 71% 0.00in /  0mm
10:00 19.4 °F /  -7 °C 11.5 °F /  -11.4 °C 30.22in /  1023.2hPa North 1.0mph /  1.6km/h 4.0mph /  6.4km/h 71% 0.00in /  0mm
10:05 19.7 °F /  -6.8 °C 11.5 °F /  -11.4 °C 30.22in /  1023.2hPa NNE 1.0mph /  1.6km/h 4.0mph /  6.4km/h 70% 0.00in /  0mm
10:10 20.2 °F /  -6.6 °C 11.7 °F /  -11.3 °C 30.23in /  1023.6hPa Calm   4.0mph /  6.4km/h 69% 0.00in /  0mm
10:15 20.6 °F /  -6.3 °C 12.0 °F /  -11.1 °C 30.23in /  1023.6hPa Calm   4.0mph /  6.4km/h 69% 0.00in /  0mm
10:20 20.5 °F /  -6.4 °C 11.3 °F /  -11.5 °C 30.23in /  1023.6hPa NNW 2.0mph /  3.2km/h 7.0mph /  11.3km/h 67% 0.00in /  0mm
10:25 20.7 °F /  -6.3 °C 11.8 °F /  -11.2 °C 30.23in /  1023.6hPa Calm   7.0mph /  11.3km/h 68% 0.00in /  0mm
10:30 21.5 °F /  -5.8 °C 11.6 °F /  -11.3 °C 30.22in /  1023.2hPa NNE 2.0mph /  3.2km/h 8.0mph /  12.9km/h 65% 0.00in /  0mm
10:35 21.9 °F /  -5.6 °C 12.3 °F /  -10.9 °C 30.22in /  1023.2hPa Calm   8.0mph /  12.9km/h 66% 0.00in /  0mm
10:40 22.2 °F /  -5.4 °C 11.5 °F /  -11.4 °C 30.22in /  1023.2hPa Calm   5.0mph /  8km/h 63% 0.00in /  0mm
10:45 21.8 °F /  -5.7 °C 11.1 °F /  -11.6 °C 30.22in /  1023.2hPa NW 1.0mph /  1.6km/h 3.0mph /  4.8km/h 63% 0.00in /  0mm
10:50 21.5 °F /  -5.8 °C 10.9 °F /  -11.7 °C 30.22in /  1023.2hPa NW 1.0mph /  1.6km/h 4.0mph /  6.4km/h 63% 0.00in /  0mm
10:55 21.6 °F /  -5.8 °C 10.6 °F /  -11.9 °C 30.22in /  1023.2hPa NNE 1.0mph /  1.6km/h 5.0mph /  8km/h 62% 0.00in /  0mm
11:00 21.7 °F /  -5.7 °C 11.4 °F /  -11.4 °C 30.22in /  1023.2hPa North 1.0mph /  1.6km/h 5.0mph /  8km/h 64% 0.00in /  0mm
11:05 22.0 °F /  -5.6 °C 12.0 °F /  -11.1 °C 30.22in /  1023.2hPa NW 1.0mph /  1.6km/h 4.0mph /  6.4km/h 65% 0.00in /  0mm
11:10 21.8 °F /  -5.7 °C 11.5 °F /  -11.4 °C 30.23in /  1023.6hPa NW 2.0mph /  3.2km/h 5.0mph /  8km/h 64% 0.00in /  0mm
11:15 21.8 °F /  -5.7 °C 11.1 °F /  -11.6 °C 30.23in /  1023.6hPa NW 2.0mph /  3.2km/h 5.0mph /  8km/h 63% 0.00in /  0mm
11:20 21.6 °F /  -5.8 °C 10.9 °F /  -11.7 °C 30.23in /  1023.6hPa WNW 4.0mph /  6.4km/h 6.0mph /  9.7km/h 63% 0.00in /  0mm
11:25 21.2 °F /  -6 °C 10.9 °F /  -11.7 °C 30.23in /  1023.6hPa West 3.0mph /  4.8km/h 7.0mph /  11.3km/h 64% 0.00in /  0mm
11:30 21.2 °F /  -6 °C 11.3 °F /  -11.5 °C 30.23in /  1023.6hPa NW 4.0mph /  6.4km/h 7.0mph /  11.3km/h 65% 0.00in /  0mm
11:35 21.5 °F /  -5.8 °C 11.6 °F /  -11.3 °C 30.23in /  1023.6hPa NNW 2.0mph /  3.2km/h 8.0mph /  12.9km/h 65% 0.00in /  0mm
11:40 22.2 °F /  -5.4 °C 11.9 °F /  -11.2 °C 30.23in /  1023.6hPa NNW 2.0mph /  3.2km/h 8.0mph /  12.9km/h 64% 0.00in /  0mm
11:50 22.2 °F /  -5.4 °C 11.5 °F /  -11.4 °C 30.23in /  1023.6hPa WNW 1.0mph /  1.6km/h 7.0mph /  11.3km/h 63% 0.00in /  0mm
11:55 22.5 °F /  -5.3 °C 12.2 °F /  -11 °C 30.23in /  1023.6hPa NW 3.0mph /  4.8km/h 8.0mph /  12.9km/h 64% 0.00in /  0mm
12:00 22.0 °F /  -5.6 °C 11.7 °F /  -11.3 °C 30.23in /  1023.6hPa West 4.0mph /  6.4km/h 8.0mph /  12.9km/h 64% 0.00in /  0mm
12:05 22.2 °F /  -5.4 °C 11.5 °F /  -11.4 °C 30.23in /  1023.6hPa NNW 2.0mph /  3.2km/h 7.0mph /  11.3km/h 63% 0.00in /  0mm
12:10 22.5 °F /  -5.3 °C 11.8 °F /  -11.2 °C 30.23in /  1023.6hPa NW 4.0mph /  6.4km/h 7.0mph /  11.3km/h 63% 0.00in /  0mm
12:15 22.2 °F /  -5.4 °C 11.2 °F /  -11.6 °C 30.23in /  1023.6hPa WNW 3.0mph /  4.8km/h 7.0mph /  11.3km/h 62% 0.00in /  0mm
12:20 22.2 °F /  -5.4 °C 11.5 °F /  -11.4 °C 30.23in /  1023.6hPa West 4.0mph /  6.4km/h 7.0mph /  11.3km/h 63% 0.00in /  0mm
12:25 22.0 °F /  -5.6 °C 11.3 °F /  -11.5 °C 30.23in /  1023.6hPa WNW 3.0mph /  4.8km/h 10.0mph /  16.1km/h 63% 0.00in /  0mm
12:30 22.2 °F /  -5.4 °C 11.2 °F /  -11.6 °C 30.23in /  1023.6hPa NW 4.0mph /  6.4km/h 10.0mph /  16.1km/h 62% 0.00in /  0mm
12:40 21.9 °F /  -5.6 °C 10.1 °F /  -12.2 °C 30.23in /  1023.6hPa WNW 1.0mph /  1.6km/h 9.0mph /  14.5km/h 60% 0.00in /  0mm
12:45 22.0 °F /  -5.6 °C 10.2 °F /  -12.1 °C 30.23in /  1023.6hPa West 2.0mph /  3.2km/h 9.0mph /  14.5km/h 60% 0.00in /  0mm
12:50 22.2 °F /  -5.4 °C 10.4 °F /  -12 °C 30.23in /  1023.6hPa NW 4.0mph /  6.4km/h 7.0mph /  11.3km/h 60% 0.00in /  0mm
12:55 22.6 °F /  -5.2 °C 10.8 °F /  -11.8 °C 30.23in /  1023.6hPa NW 1.0mph /  1.6km/h 7.0mph /  11.3km/h 60% 0.00in /  0mm
13:00 23.0 °F /  -5 °C 10.0 °F /  -12.2 °C 30.23in /  1023.6hPa NW 2.0mph /  3.2km/h 8.0mph /  12.9km/h 57% 0.00in /  0mm
13:05 23.1 °F /  -4.9 °C 9.3 °F /  -12.6 °C 30.23in /  1023.6hPa NW 3.0mph /  4.8km/h 8.0mph /  12.9km/h 55% 0.00in /  0mm
13:10 23.6 °F /  -4.7 °C 10.6 °F /  -11.9 °C 30.24in /  1023.9hPa WNW 3.0mph /  4.8km/h 7.0mph /  11.3km/h 57% 0.00in /  0mm
13:15 24.0 °F /  -4.4 °C 10.2 °F /  -12.1 °C 30.24in /  1023.9hPa NNW 1.0mph /  1.6km/h 7.0mph /  11.3km/h 55% 0.00in /  0mm
13:20 24.3 °F /  -4.3 °C 10.0 °F /  -12.2 °C 30.24in /  1023.9hPa NNW 2.0mph /  3.2km/h 5.0mph /  8km/h 54% 0.00in /  0mm
13:25 24.4 °F /  -4.2 °C 9.3 °F /  -12.6 °C 30.24in /  1023.9hPa NW 1.0mph /  1.6km/h 6.0mph /  9.7km/h 52% 0.00in /  0mm
13:30 24.3 °F /  -4.3 °C 10.0 °F /  -12.2 °C 30.24in /  1023.9hPa NW 3.0mph /  4.8km/h 6.0mph /  9.7km/h 54% 0.00in /  0mm
13:40 24.7 °F /  -4.1 °C 9.6 °F /  -12.4 °C 30.24in /  1023.9hPa WNW 3.0mph /  4.8km/h 10.0mph /  16.1km/h 52% 0.00in /  0mm
13:45 24.2 °F /  -4.3 °C 8.7 °F /  -12.9 °C 30.24in /  1023.9hPa West 5.0mph /  8km/h 12.0mph /  19.3km/h 51% 0.00in /  0mm
13:55 24.3 °F /  -4.3 °C 9.2 °F /  -12.7 °C 30.24in /  1023.9hPa Calm   11.0mph /  17.7km/h 52% 0.00in /  0mm
14:00 24.7 °F /  -4.1 °C 8.7 °F /  -12.9 °C 30.24in /  1023.9hPa NW 4.0mph /  6.4km/h 8.0mph /  12.9km/h 50% 0.00in /  0mm
14:05 24.9 °F /  -3.9 °C 9.3 °F /  -12.6 °C 30.24in /  1023.9hPa WNW 2.0mph /  3.2km/h 8.0mph /  12.9km/h 51% 0.00in /  0mm
14:10 25.0 °F /  -3.9 °C 9.0 °F /  -12.8 °C 30.24in /  1023.9hPa NW 3.0mph /  4.8km/h 6.0mph /  9.7km/h 50% 0.00in /  0mm
14:15 24.8 °F /  -4 °C 9.7 °F /  -12.4 °C 30.24in /  1023.9hPa NNE 1.0mph /  1.6km/h 6.0mph /  9.7km/h 52% 0.00in /  0mm
14:20 25.1 °F /  -3.8 °C 9.5 °F /  -12.5 °C 30.25in /  1024.3hPa NNE 1.0mph /  1.6km/h 5.0mph /  8km/h 51% 0.00in /  0mm
14:25 25.0 °F /  -3.9 °C 9.4 °F /  -12.6 °C 30.25in /  1024.3hPa North 1.0mph /  1.6km/h 5.0mph /  8km/h 51% 0.00in /  0mm
14:35 24.9 °F /  -3.9 °C 9.8 °F /  -12.3 °C 30.25in /  1024.3hPa NNE 2.0mph /  3.2km/h 6.0mph /  9.7km/h 52% 0.00in /  0mm
14:40 25.1 °F /  -3.8 °C 10.4 °F /  -12 °C 30.25in /  1024.3hPa NNE 1.0mph /  1.6km/h 6.0mph /  9.7km/h 53% 0.00in /  0mm
14:45 25.2 °F /  -3.8 °C 10.5 °F /  -11.9 °C 30.25in /  1024.3hPa NNE 2.0mph /  3.2km/h 5.0mph /  8km/h 53% 0.00in /  0mm
14:50 25.2 °F /  -3.8 °C 10.0 °F /  -12.2 °C 30.25in /  1024.3hPa NE 2.0mph /  3.2km/h 5.0mph /  8km/h 52% 0.00in /  0mm
14:55 25.3 °F /  -3.7 °C 10.1 °F /  -12.2 °C 30.25in /  1024.3hPa NE 1.0mph /  1.6km/h 4.0mph /  6.4km/h 52% 0.00in /  0mm
15:00 25.7 °F /  -3.5 °C 10.9 °F /  -11.7 °C 30.25in /  1024.3hPa NE 1.0mph /  1.6km/h 4.0mph /  6.4km/h 53% 0.00in /  0mm
15:05 26.6 °F /  -3 °C 11.8 °F /  -11.2 °C 30.25in /  1024.3hPa NE 2.0mph /  3.2km/h 4.0mph /  6.4km/h 53% 0.00in /  0mm
15:10 27.3 °F /  -2.6 °C 12.4 °F /  -10.9 °C 30.25in /  1024.3hPa NNE 2.0mph /  3.2km/h 5.0mph /  8km/h 53% 0.00in /  0mm
15:15 27.7 °F /  -2.4 °C 12.8 °F /  -10.7 °C 30.25in /  1024.3hPa Calm   5.0mph /  8km/h 53% 0.00in /  0mm
15:20 28.3 °F /  -2.1 °C 13.3 °F /  -10.4 °C 30.25in /  1024.3hPa North 1.0mph /  1.6km/h 4.0mph /  6.4km/h 53% 0.00in /  0mm
15:25 28.7 °F /  -1.8 °C 13.3 °F /  -10.4 °C 30.25in /  1024.3hPa North 1.0mph /  1.6km/h 7.0mph /  11.3km/h 52% 0.00in /  0mm
15:30 28.9 °F /  -1.7 °C 13.5 °F /  -10.3 °C 30.25in /  1024.3hPa NNW 1.0mph /  1.6km/h 7.0mph /  11.3km/h 52% 0.00in /  0mm
15:35 29.2 °F /  -1.6 °C 13.8 °F /  -10.1 °C 30.25in /  1024.3hPa Calm   5.0mph /  8km/h 52% 0.00in /  0mm
15:40 28.8 °F /  -1.8 °C 13.4 °F /  -10.3 °C 30.25in /  1024.3hPa Calm   5.0mph /  8km/h 52% 0.00in /  0mm
15:45 28.8 °F /  -1.8 °C 13.4 °F /  -10.3 °C 30.25in /  1024.3hPa Calm   3.0mph /  4.8km/h 52% 0.00in /  0mm
15:50 29.0 °F /  -1.7 °C 13.6 °F /  -10.2 °C 30.25in /  1024.3hPa Calm   4.0mph /  6.4km/h 52% 0.00in /  0mm
15:55 29.3 °F /  -1.5 °C 13.8 °F /  -10.1 °C 30.25in /  1024.3hPa Calm   4.0mph /  6.4km/h 52% 0.00in /  0mm
16:00 29.4 °F /  -1.4 °C 13.9 °F /  -10.1 °C 30.25in /  1024.3hPa Calm   2.0mph /  3.2km/h 52% 0.00in /  0mm
16:05 29.3 °F /  -1.5 °C 13.8 °F /  -10.1 °C 30.25in /  1024.3hPa Calm   2.0mph /  3.2km/h 52% 0.00in /  0mm
16:10 29.4 °F /  -1.4 °C 13.9 °F /  -10.1 °C 30.25in /  1024.3hPa Calm     52% 0.00in /  0mm
16:15 29.5 °F /  -1.4 °C 14.0 °F /  -10 °C 30.25in /  1024.3hPa Calm     52% 0.00in /  0mm
16:20 29.7 °F /  -1.3 °C 14.2 °F /  -9.9 °C 30.25in /  1024.3hPa Calm   2.0mph /  3.2km/h 52% 0.00in /  0mm
16:30 29.7 °F /  -1.3 °C 14.7 °F /  -9.6 °C 30.25in /  1024.3hPa Calm   3.0mph /  4.8km/h 53% 0.00in /  0mm
16:35 29.6 °F /  -1.3 °C 15.0 °F /  -9.4 °C 30.25in /  1024.3hPa Calm   3.0mph /  4.8km/h 54% 0.00in /  0mm
16:40 29.7 °F /  -1.3 °C 15.1 °F /  -9.4 °C 30.25in /  1024.3hPa Calm   2.0mph /  3.2km/h 54% 0.00in /  0mm
16:45 29.6 °F /  -1.3 °C 15.0 °F /  -9.4 °C 30.25in /  1024.3hPa Calm   2.0mph /  3.2km/h 54% 0.00in /  0mm
16:50 29.3 °F /  -1.5 °C 14.7 °F /  -9.6 °C 30.25in /  1024.3hPa Calm   2.0mph /  3.2km/h 54% 0.00in /  0mm
16:55 28.8 °F /  -1.8 °C 14.7 °F /  -9.6 °C 30.25in /  1024.3hPa Calm     55% 0.00in /  0mm
17:00 28.3 °F /  -2.1 °C 14.2 °F /  -9.9 °C 30.25in /  1024.3hPa Calm     55% 0.00in /  0mm
17:05 28.0 °F /  -2.2 °C 14.3 °F /  -9.8 °C 30.25in /  1024.3hPa Calm     56% 0.00in /  0mm
17:10 27.8 °F /  -2.3 °C 14.5 °F /  -9.7 °C 30.25in /  1024.3hPa Calm     57% 0.00in /  0mm
17:15 27.4 °F /  -2.6 °C 14.2 °F /  -9.9 °C 30.25in /  1024.3hPa Calm     57% 0.00in /  0mm
17:20 27.0 °F /  -2.8 °C 14.2 °F /  -9.9 °C 30.25in /  1024.3hPa Calm     58% 0.00in /  0mm
17:25 26.4 °F /  -3.1 °C 14.0 °F /  -10 °C 30.25in /  1024.3hPa Calm     59% 0.00in /  0mm
17:30 26.0 °F /  -3.3 °C 14.0 °F /  -10 °C 30.25in /  1024.3hPa Calm     60% 0.00in /  0mm
17:35 25.6 °F /  -3.6 °C 14.0 °F /  -10 °C 30.25in /  1024.3hPa Calm     61% 0.00in /  0mm
17:40 25.1 °F /  -3.8 °C 13.9 °F /  -10.1 °C 30.25in /  1024.3hPa Calm     62% 0.00in /  0mm
17:45 24.7 °F /  -4.1 °C 14.3 °F /  -9.8 °C 30.26in /  1024.6hPa Calm     64% 0.00in /  0mm
17:50 24.1 °F /  -4.4 °C 13.7 °F /  -10.2 °C 30.26in /  1024.6hPa Calm     64% 0.00in /  0mm
17:55 23.7 °F /  -4.6 °C 13.7 °F /  -10.2 °C 30.26in /  1024.6hPa Calm     65% 0.00in /  0mm
18:00 23.4 °F /  -4.8 °C 13.7 °F /  -10.2 °C 30.26in /  1024.6hPa Calm     66% 0.00in /  0mm
18:05 23.4 °F /  -4.8 °C 14.1 °F /  -9.9 °C 30.26in /  1024.6hPa Calm   1.0mph /  1.6km/h 67% 0.00in /  0mm
18:10 23.3 °F /  -4.8 °C 14.0 °F /  -10 °C 30.26in /  1024.6hPa Calm   1.0mph /  1.6km/h 67% 0.00in /  0mm
18:15 23.0 °F /  -5 °C 15.6 °F /  -9.1 °C 30.27in /  1024.9hPa Calm     73% 0.00in /  0mm
18:20 22.9 °F /  -5.1 °C 13.9 °F /  -10.1 °C 30.27in /  1024.9hPa Calm     68% 0.00in /  0mm
18:25 23.0 °F /  -5 °C 14.3 °F /  -9.8 °C 30.27in /  1024.9hPa Calm     69% 0.00in /  0mm
18:30 23.1 °F /  -4.9 °C 14.4 °F /  -9.8 °C 30.27in /  1024.9hPa Calm     69% 0.00in /  0mm
18:40 23.0 °F /  -5 °C 14.7 °F /  -9.6 °C 30.27in /  1024.9hPa Calm     70% 0.00in /  0mm
18:45 22.7 °F /  -5.2 °C 14.4 °F /  -9.8 °C 30.27in /  1024.9hPa Calm     70% 0.00in /  0mm
18:50 22.2 °F /  -5.4 °C 13.9 °F /  -10.1 °C 30.27in /  1024.9hPa Calm     70% 0.00in /  0mm
18:55 21.7 °F /  -5.7 °C 13.7 °F /  -10.2 °C 30.27in /  1024.9hPa Calm     71% 0.00in /  0mm
19:00 21.5 °F /  -5.8 °C 13.9 °F /  -10.1 °C 30.27in /  1024.9hPa Calm     72% 0.00in /  0mm
19:05 21.3 °F /  -5.9 °C 13.7 °F /  -10.2 °C 30.27in /  1024.9hPa Calm     72% 0.00in /  0mm
19:10 21.2 °F /  -6 °C 13.9 °F /  -10.1 °C 30.27in /  1024.9hPa Calm     73% 0.00in /  0mm
19:15 21.0 °F /  -6.1 °C 13.7 °F /  -10.2 °C 30.27in /  1024.9hPa Calm     73% 0.00in /  0mm
19:20 20.9 °F /  -6.2 °C 13.9 °F /  -10.1 °C 30.27in /  1024.9hPa Calm     74% 0.00in /  0mm
19:25 20.9 °F /  -6.2 °C 14.2 °F /  -9.9 °C 30.27in /  1024.9hPa Calm     75% 0.00in /  0mm
19:30 21.1 °F /  -6.1 °C 14.4 °F /  -9.8 °C 30.27in /  1024.9hPa Calm     75% 0.00in /  0mm
19:35 21.1 °F /  -6.1 °C 14.4 °F /  -9.8 °C 30.27in /  1024.9hPa Calm     75% 0.00in /  0mm
19:40 20.9 °F /  -6.2 °C 14.5 °F /  -9.7 °C 30.27in /  1024.9hPa Calm     76% 0.00in /  0mm
19:45 21.0 °F /  -6.1 °C 14.9 °F /  -9.5 °C 30.27in /  1024.9hPa Calm     77% 0.00in /  0mm
19:50 21.3 °F /  -5.9 °C 15.2 °F /  -9.3 °C 30.27in /  1024.9hPa Calm     77% 0.00in /  0mm
19:55 21.7 °F /  -5.7 °C 15.3 °F /  -9.3 °C 30.27in /  1024.9hPa Calm     76% 0.00in /  0mm
20:00 21.8 °F /  -5.7 °C 15.4 °F /  -9.2 °C 30.27in /  1024.9hPa Calm   1.0mph /  1.6km/h 76% 0.00in /  0mm
20:05 21.5 °F /  -5.8 °C 14.8 °F /  -9.6 °C 30.27in /  1024.9hPa Calm   1.0mph /  1.6km/h 75% 0.00in /  0mm
20:10 21.2 °F /  -6 °C 14.8 °F /  -9.6 °C 30.28in /  1025.3hPa Calm     76% 0.00in /  0mm
20:15 20.9 °F /  -6.2 °C 14.8 °F /  -9.6 °C 30.28in /  1025.3hPa Calm     77% 0.00in /  0mm
20:20 20.9 °F /  -6.2 °C 14.8 °F /  -9.6 °C 30.28in /  1025.3hPa Calm     77% 0.00in /  0mm
20:25 20.8 °F /  -6.2 °C 14.7 °F /  -9.6 °C 30.28in /  1025.3hPa Calm     77% 0.00in /  0mm
20:30 20.7 °F /  -6.3 °C 14.6 °F /  -9.7 °C 30.28in /  1025.3hPa Calm     77% 0.00in /  0mm
20:35 20.5 °F /  -6.4 °C 14.4 °F /  -9.8 °C 30.28in /  1025.3hPa Calm     77% 0.00in /  0mm
20:40 20.3 °F /  -6.5 °C 14.2 °F /  -9.9 °C 30.28in /  1025.3hPa Calm     77% 0.00in /  0mm
20:45 20.1 °F /  -6.6 °C 14.1 °F /  -9.9 °C 30.28in /  1025.3hPa Calm     77% 0.00in /  0mm
20:50 19.7 °F /  -6.8 °C 13.7 °F /  -10.2 °C 30.28in /  1025.3hPa Calm     77% 0.00in /  0mm
20:55 19.3 °F /  -7.1 °C 13.6 °F /  -10.2 °C 30.28in /  1025.3hPa Calm     78% 0.00in /  0mm
21:00 19.1 °F /  -7.2 °C 13.4 °F /  -10.3 °C 30.28in /  1025.3hPa Calm     78% 0.00in /  0mm
21:05 18.9 °F /  -7.3 °C 13.5 °F /  -10.3 °C 30.28in /  1025.3hPa Calm     79% 0.00in /  0mm
21:10 18.7 °F /  -7.4 °C 13.3 °F /  -10.4 °C 30.29in /  1025.6hPa Calm     79% 0.00in /  0mm
21:15 18.5 °F /  -7.5 °C 13.1 °F /  -10.5 °C 30.29in /  1025.6hPa Calm     79% 0.00in /  0mm
21:20 18.3 °F /  -7.6 °C 13.2 °F /  -10.4 °C 30.29in /  1025.6hPa Calm     80% 0.00in /  0mm
21:25 18.3 °F /  -7.6 °C 13.2 °F /  -10.4 °C 30.29in /  1025.6hPa Calm     80% 0.00in /  0mm
21:30 18.5 °F /  -7.5 °C 13.6 °F /  -10.2 °C 30.29in /  1025.6hPa Calm     81% 0.00in /  0mm
21:35 18.8 °F /  -7.3 °C 13.9 °F /  -10.1 °C 30.29in /  1025.6hPa Calm     81% 0.00in /  0mm
21:40 19.1 °F /  -7.2 °C 14.2 °F /  -9.9 °C 30.29in /  1025.6hPa Calm     81% 0.00in /  0mm
21:45 19.2 °F /  -7.1 °C 14.3 °F /  -9.8 °C 30.29in /  1025.6hPa Calm     81% 0.00in /  0mm
21:50 19.3 °F /  -7.1 °C 14.4 °F /  -9.8 °C 30.29in /  1025.6hPa Calm     81% 0.00in /  0mm
21:55 19.7 °F /  -6.8 °C 14.8 °F /  -9.6 °C 30.29in /  1025.6hPa Calm     81% 0.00in /  0mm
22:00 19.7 °F /  -6.8 °C 14.8 °F /  -9.6 °C 30.29in /  1025.6hPa Calm     81% 0.00in /  0mm
22:05 19.7 °F /  -6.8 °C 14.8 °F /  -9.6 °C 30.29in /  1025.6hPa Calm     81% 0.00in /  0mm
22:10 19.5 °F /  -6.9 °C 14.3 °F /  -9.8 °C 30.29in /  1025.6hPa Calm     80% 0.00in /  0mm
22:15 19.1 °F /  -7.2 °C 13.9 °F /  -10.1 °C 30.29in /  1025.6hPa Calm     80% 0.00in /  0mm
22:20 19.0 °F /  -7.2 °C 14.1 °F /  -9.9 °C 30.29in /  1025.6hPa Calm     81% 0.00in /  0mm
22:25 18.9 °F /  -7.3 °C 14.0 °F /  -10 °C 30.29in /  1025.6hPa Calm     81% 0.00in /  0mm
22:30 18.9 °F /  -7.3 °C 14.0 °F /  -10 °C 30.29in /  1025.6hPa Calm     81% 0.00in /  0mm
22:35 18.7 °F /  -7.4 °C 13.8 °F /  -10.1 °C 30.29in /  1025.6hPa Calm     81% 0.00in /  0mm
22:40 18.5 °F /  -7.5 °C 13.6 °F /  -10.2 °C 30.29in /  1025.6hPa Calm     81% 0.00in /  0mm
22:45 18.2 °F /  -7.7 °C 13.4 °F /  -10.3 °C 30.29in /  1025.6hPa Calm     81% 0.00in /  0mm
22:55 18.2 °F /  -7.7 °C 13.6 °F /  -10.2 °C 30.29in /  1025.6hPa Calm     82% 0.00in /  0mm
23:00 18.5 °F /  -7.5 °C 13.9 °F /  -10.1 °C 30.29in /  1025.6hPa Calm     82% 0.00in /  0mm
23:05 18.4 °F /  -7.6 °C 13.8 °F /  -10.1 °C 30.29in /  1025.6hPa Calm     82% 0.00in /  0mm
23:10 18.3 °F /  -7.6 °C 13.7 °F /  -10.2 °C 30.29in /  1025.6hPa Calm     82% 0.00in /  0mm
23:15 18.3 °F /  -7.6 °C 13.7 °F /  -10.2 °C 30.30in /  1026hPa Calm     82% 0.00in /  0mm
23:20 18.5 °F /  -7.5 °C 14.2 °F /  -9.9 °C 30.29in /  1025.6hPa Calm     83% 0.00in /  0mm
23:25 18.6 °F /  -7.4 °C 14.3 °F /  -9.8 °C 30.30in /  1026hPa Calm     83% 0.00in /  0mm
23:30 18.8 °F /  -7.3 °C 14.5 °F /  -9.7 °C 30.30in /  1026hPa Calm     83% 0.00in /  0mm
23:35 18.6 °F /  -7.4 °C 14.0 °F /  -10 °C 30.30in /  1026hPa Calm     82% 0.00in /  0mm
23:39 18.5 °F /  -7.5 °C 13.9 °F /  -10.1 °C 30.30in /  1026hPa Calm     82% 0.00in /  0mm
23:45 18.2 °F /  -7.7 °C 13.6 °F /  -10.2 °C 30.30in /  1026hPa Calm     82% 0.00in /  0mm
23:55 18.3 °F /  -7.6 °C 14.0 °F /  -10 °C 30.30in /  1026hPa Calm     83% 0.00in /  0mm
Westford Weather
Compliments of Weather Underground

 
 
Current Radar Loop:

Copyright © WestfordWeather.net 2007-2014. All rights reserved.